Terminal Aerodrome Forecast
Issued by NWS Chicago, IL

Home | Current Version | Previous Version | Text Only | Print | Product List | Glossary Off
Versions: 1 2 3 4 5 6 7 8 9 10 11 12 13 14 15 16 17 18 19 20 21 22 23 24 25 26 27 28 29 30 31 32

000
FTUS43 KLOT 231600 AAB
TAFRFD
TAF AMD
KRFD 231600Z 2316/2412 09009KT P6SM FEW100 BKN250
     FM232300 11007KT P6SM BKN090 OVC250
     FM240200 11009KT P6SM VCSH BKN060 OVC090 PROB30 2402/2406 P6SM
      -SHRA=

USA.gov is the U.S. government's official web portal to all federal, state and local government web resources and services.